sensor_id;sensor_type;location;lat;lon;timestamp;P1;durP1;ratioP1;P2;durP2;ratioP2
43504;SDS011;29098;48.184;16.298;2023-04-29T00:02:06;17.67;;;13.73;;
43504;SDS011;29098;48.184;16.298;2023-04-29T00:04:32;22.27;;;13.10;;
43504;SDS011;29098;48.184;16.298;2023-04-29T00:06:58;20.15;;;13.63;;
43504;SDS011;29098;48.184;16.298;2023-04-29T00:09:24;21.77;;;12.80;;
43504;SDS011;29098;48.184;16.298;2023-04-29T00:11:49;24.73;;;13.75;;
43504;SDS011;29098;48.184;16.298;2023-04-29T00:14:15;18.35;;;12.30;;
43504;SDS011;29098;48.184;16.298;2023-04-29T00:16:41;19.50;;;12.88;;
43504;SDS011;29098;48.184;16.298;2023-04-29T00:19:06;19.98;;;13.15;;
43504;SDS011;29098;48.184;16.298;2023-04-29T00:21:32;18.50;;;12.98;;
43504;SDS011;29098;48.184;16.298;2023-04-29T00:23:58;19.65;;;13.98;;
43504;SDS011;29098;48.184;16.298;2023-04-29T00:26:24;17.98;;;12.65;;
43504;SDS011;29098;48.184;16.298;2023-04-29T00:28:49;18.90;;;12.68;;
43504;SDS011;29098;48.184;16.298;2023-04-29T00:31:15;18.35;;;13.52;;
43504;SDS011;29098;48.184;16.298;2023-04-29T00:33:40;19.33;;;12.80;;
43504;SDS011;29098;48.184;16.298;2023-04-29T00:36:06;22.23;;;13.73;;
43504;SDS011;29098;48.184;16.298;2023-04-29T00:38:32;18.08;;;12.75;;
43504;SDS011;29098;48.184;16.298;2023-04-29T00:40:58;19.58;;;14.18;;
43504;SDS011;29098;48.184;16.298;2023-04-29T00:43:24;19.25;;;14.02;;
43504;SDS011;29098;48.184;16.298;2023-04-29T00:45:49;21.63;;;14.15;;
43504;SDS011;29098;48.184;16.298;2023-04-29T00:48:15;18.67;;;13.82;;
43504;SDS011;29098;48.184;16.298;2023-04-29T00:50:40;20.92;;;14.40;;
43504;SDS011;29098;48.184;16.298;2023-04-29T00:53:07;20.25;;;13.65;;
43504;SDS011;29098;48.184;16.298;2023-04-29T00:55:39;18.73;;;13.70;;
43504;SDS011;29098;48.184;16.298;2023-04-29T00:58:05;22.65;;;13.23;;
43504;SDS011;29098;48.184;16.298;2023-04-29T01:00:31;19.17;;;13.80;;
43504;SDS011;29098;48.184;16.298;2023-04-29T01:02:59;20.02;;;13.98;;
43504;SDS011;29098;48.184;16.298;2023-04-29T01:05:25;17.85;;;13.45;;
43504;SDS011;29098;48.184;16.298;2023-04-29T01:10:28;20.50;;;14.10;;
43504;SDS011;29098;48.184;16.298;2023-04-29T01:13:06;22.25;;;14.65;;
43504;SDS011;29098;48.184;16.298;2023-04-29T01:15:46;19.42;;;14.00;;
43504;SDS011;29098;48.184;16.298;2023-04-29T01:18:25;19.92;;;13.45;;
43504;SDS011;29098;48.184;16.298;2023-04-29T01:20:54;22.15;;;14.60;;
43504;SDS011;29098;48.184;16.298;2023-04-29T01:23:27;19.08;;;14.15;;
43504;SDS011;29098;48.184;16.298;2023-04-29T01:25:54;23.60;;;14.70;;
43504;SDS011;29098;48.184;16.298;2023-04-29T01:39:18;21.95;;;15.25;;
43504;SDS011;29098;48.184;16.298;2023-04-29T01:41:56;28.98;;;17.65;;
43504;SDS011;29098;48.184;16.298;2023-04-29T01:44:27;23.85;;;16.15;;
43504;SDS011;29098;48.184;16.298;2023-04-29T01:46:54;23.90;;;15.63;;
43504;SDS011;29098;48.184;16.298;2023-04-29T01:49:23;27.33;;;17.33;;
43504;SDS011;29098;48.184;16.298;2023-04-29T01:51:49;29.17;;;20.00;;
43504;SDS011;29098;48.184;16.298;2023-04-29T01:54:15;29.52;;;20.52;;
43504;SDS011;29098;48.184;16.298;2023-04-29T01:56:41;29.90;;;21.25;;
43504;SDS011;29098;48.184;16.298;2023-04-29T01:59:07;33.70;;;22.17;;
43504;SDS011;29098;48.184;16.298;2023-04-29T02:01:32;32.67;;;21.88;;
43504;SDS011;29098;48.184;16.298;2023-04-29T02:03:58;32.13;;;21.38;;
43504;SDS011;29098;48.184;16.298;2023-04-29T02:06:23;34.65;;;22.65;;
43504;SDS011;29098;48.184;16.298;2023-04-29T02:08:50;31.33;;;21.25;;
43504;SDS011;29098;48.184;16.298;2023-04-29T02:11:16;35.80;;;23.10;;
43504;SDS011;29098;48.184;16.298;2023-04-29T02:13:41;35.70;;;22.80;;
43504;SDS011;29098;48.184;16.298;2023-04-29T02:16:08;33.35;;;23.02;;
43504;SDS011;29098;48.184;16.298;2023-04-29T02:18:34;32.42;;;23.35;;
43504;SDS011;29098;48.184;16.298;2023-04-29T02:20:59;32.33;;;22.55;;
43504;SDS011;29098;48.184;16.298;2023-04-29T02:23:28;36.63;;;24.13;;
43504;SDS011;29098;48.184;16.298;2023-04-29T02:25:53;38.00;;;24.05;;
43504;SDS011;29098;48.184;16.298;2023-04-29T02:28:19;34.05;;;22.55;;
43504;SDS011;29098;48.184;16.298;2023-04-29T02:30:44;36.28;;;23.65;;
43504;SDS011;29098;48.184;16.298;2023-04-29T02:33:10;34.72;;;22.52;;
43504;SDS011;29098;48.184;16.298;2023-04-29T02:35:36;35.83;;;24.40;;
43504;SDS011;29098;48.184;16.298;2023-04-29T02:38:01;35.38;;;23.65;;
43504;SDS011;29098;48.184;16.298;2023-04-29T02:40:27;34.05;;;22.25;;
43504;SDS011;29098;48.184;16.298;2023-04-29T02:42:53;36.10;;;23.17;;
43504;SDS011;29098;48.184;16.298;2023-04-29T02:45:18;32.60;;;21.67;;
43504;SDS011;29098;48.184;16.298;2023-04-29T02:47:43;36.65;;;23.95;;
43504;SDS011;29098;48.184;16.298;2023-04-29T02:50:09;38.50;;;23.80;;
43504;SDS011;29098;48.184;16.298;2023-04-29T02:52:34;38.10;;;25.88;;
43504;SDS011;29098;48.184;16.298;2023-04-29T02:55:00;39.13;;;24.92;;
43504;SDS011;29098;48.184;16.298;2023-04-29T02:57:26;35.30;;;25.02;;
43504;SDS011;29098;48.184;16.298;2023-04-29T02:59:53;38.50;;;23.95;;
43504;SDS011;29098;48.184;16.298;2023-04-29T03:02:19;36.42;;;24.83;;
43504;SDS011;29098;48.184;16.298;2023-04-29T03:04:44;40.92;;;25.77;;
43504;SDS011;29098;48.184;16.298;2023-04-29T03:07:10;36.85;;;25.00;;
43504;SDS011;29098;48.184;16.298;2023-04-29T03:09:36;37.22;;;24.95;;
43504;SDS011;29098;48.184;16.298;2023-04-29T03:12:01;39.42;;;25.35;;
43504;SDS011;29098;48.184;16.298;2023-04-29T03:14:27;41.70;;;26.08;;
43504;SDS011;29098;48.184;16.298;2023-04-29T03:16:53;40.10;;;25.52;;
43504;SDS011;29098;48.184;16.298;2023-04-29T03:19:20;41.55;;;25.75;;
43504;SDS011;29098;48.184;16.298;2023-04-29T03:21:46;36.30;;;23.88;;
43504;SDS011;29098;48.184;16.298;2023-04-29T03:24:11;42.03;;;24.35;;
43504;SDS011;29098;48.184;16.298;2023-04-29T03:26:37;39.30;;;26.42;;
43504;SDS011;29098;48.184;16.298;2023-04-29T03:29:03;40.55;;;25.52;;
43504;SDS011;29098;48.184;16.298;2023-04-29T03:31:28;38.08;;;25.60;;
43504;SDS011;29098;48.184;16.298;2023-04-29T03:33:54;42.58;;;26.75;;
43504;SDS011;29098;48.184;16.298;2023-04-29T03:36:19;43.15;;;26.65;;
43504;SDS011;29098;48.184;16.298;2023-04-29T03:38:45;39.13;;;26.05;;
43504;SDS011;29098;48.184;16.298;2023-04-29T03:41:10;40.03;;;27.05;;
43504;SDS011;29098;48.184;16.298;2023-04-29T03:43:36;43.30;;;27.13;;
43504;SDS011;29098;48.184;16.298;2023-04-29T03:46:02;43.55;;;27.15;;
43504;SDS011;29098;48.184;16.298;2023-04-29T03:48:27;43.38;;;27.02;;
43504;SDS011;29098;48.184;16.298;2023-04-29T03:50:52;42.42;;;26.00;;
43504;SDS011;29098;48.184;16.298;2023-04-29T03:53:18;42.33;;;27.75;;
43504;SDS011;29098;48.184;16.298;2023-04-29T03:55:44;40.80;;;26.85;;
43504;SDS011;29098;48.184;16.298;2023-04-29T03:58:10;43.15;;;26.83;;
43504;SDS011;29098;48.184;16.298;2023-04-29T04:00:35;40.60;;;25.67;;
43504;SDS011;29098;48.184;16.298;2023-04-29T04:03:01;41.00;;;26.40;;
43504;SDS011;29098;48.184;16.298;2023-04-29T04:05:27;35.13;;;23.73;;
43504;SDS011;29098;48.184;16.298;2023-04-29T04:07:53;40.63;;;26.75;;
43504;SDS011;29098;48.184;16.298;2023-04-29T04:10:19;40.55;;;28.20;;
43504;SDS011;29098;48.184;16.298;2023-04-29T04:12:45;42.47;;;27.83;;
43504;SDS011;29098;48.184;16.298;2023-04-29T04:15:11;40.60;;;25.83;;
43504;SDS011;29098;48.184;16.298;2023-04-29T04:17:37;40.35;;;26.70;;
43504;SDS011;29098;48.184;16.298;2023-04-29T04:20:03;43.20;;;27.48;;
43504;SDS011;29098;48.184;16.298;2023-04-29T04:22:29;39.38;;;27.15;;
43504;SDS011;29098;48.184;16.298;2023-04-29T04:24:55;42.55;;;26.63;;
43504;SDS011;29098;48.184;16.298;2023-04-29T04:27:20;37.30;;;24.88;;
43504;SDS011;29098;48.184;16.298;2023-04-29T04:29:45;40.78;;;25.63;;
43504;SDS011;29098;48.184;16.298;2023-04-29T04:32:11;35.60;;;24.85;;
43504;SDS011;29098;48.184;16.298;2023-04-29T04:34:36;39.08;;;24.85;;
43504;SDS011;29098;48.184;16.298;2023-04-29T04:37:03;34.83;;;24.15;;
43504;SDS011;29098;48.184;16.298;2023-04-29T04:39:30;35.38;;;23.00;;
43504;SDS011;29098;48.184;16.298;2023-04-29T04:41:55;35.03;;;24.08;;
43504;SDS011;29098;48.184;16.298;2023-04-29T04:44:21;33.42;;;21.92;;
43504;SDS011;29098;48.184;16.298;2023-04-29T04:46:46;35.53;;;23.27;;
43504;SDS011;29098;48.184;16.298;2023-04-29T04:49:12;34.63;;;22.77;;
43504;SDS011;29098;48.184;16.298;2023-04-29T04:51:37;27.80;;;20.20;;
43504;SDS011;29098;48.184;16.298;2023-04-29T04:54:03;29.08;;;20.40;;
43504;SDS011;29098;48.184;16.298;2023-04-29T04:56:28;30.85;;;21.08;;
43504;SDS011;29098;48.184;16.298;2023-04-29T04:58:54;28.20;;;19.80;;
43504;SDS011;29098;48.184;16.298;2023-04-29T05:01:19;30.73;;;21.65;;
43504;SDS011;29098;48.184;16.298;2023-04-29T05:03:45;29.58;;;19.65;;
43504;SDS011;29098;48.184;16.298;2023-04-29T05:06:10;31.48;;;21.77;;
43504;SDS011;29098;48.184;16.298;2023-04-29T05:08:36;30.25;;;21.10;;
43504;SDS011;29098;48.184;16.298;2023-04-29T05:11:01;28.25;;;19.83;;
43504;SDS011;29098;48.184;16.298;2023-04-29T05:13:27;33.33;;;20.85;;
43504;SDS011;29098;48.184;16.298;2023-04-29T05:15:52;28.15;;;20.38;;
43504;SDS011;29098;48.184;16.298;2023-04-29T05:18:18;33.00;;;21.45;;
43504;SDS011;29098;48.184;16.298;2023-04-29T05:20:44;30.17;;;20.88;;
43504;SDS011;29098;48.184;16.298;2023-04-29T05:23:09;27.90;;;21.13;;
43504;SDS011;29098;48.184;16.298;2023-04-29T05:25:34;30.63;;;20.75;;
43504;SDS011;29098;48.184;16.298;2023-04-29T05:28:01;29.45;;;20.10;;
43504;SDS011;29098;48.184;16.298;2023-04-29T05:30:27;30.63;;;22.02;;
43504;SDS011;29098;48.184;16.298;2023-04-29T05:32:52;33.50;;;22.83;;
43504;SDS011;29098;48.184;16.298;2023-04-29T05:35:18;30.33;;;20.95;;
43504;SDS011;29098;48.184;16.298;2023-04-29T05:37:44;29.30;;;20.02;;
43504;SDS011;29098;48.184;16.298;2023-04-29T05:40:09;27.23;;;19.80;;
43504;SDS011;29098;48.184;16.298;2023-04-29T05:42:35;28.77;;;19.92;;
43504;SDS011;29098;48.184;16.298;2023-04-29T05:45:01;30.52;;;20.10;;
43504;SDS011;29098;48.184;16.298;2023-04-29T05:47:26;30.25;;;20.77;;
43504;SDS011;29098;48.184;16.298;2023-04-29T05:49:52;32.67;;;20.83;;
43504;SDS011;29098;48.184;16.298;2023-04-29T05:52:17;27.05;;;18.58;;
43504;SDS011;29098;48.184;16.298;2023-04-29T05:54:43;26.30;;;19.77;;
43504;SDS011;29098;48.184;16.298;2023-04-29T05:57:08;25.33;;;18.48;;
43504;SDS011;29098;48.184;16.298;2023-04-29T05:59:34;27.17;;;19.10;;
43504;SDS011;29098;48.184;16.298;2023-04-29T06:02:00;25.95;;;18.70;;
43504;SDS011;29098;48.184;16.298;2023-04-29T06:04:25;25.75;;;18.23;;
43504;SDS011;29098;48.184;16.298;2023-04-29T06:06:55;26.95;;;18.95;;
43504;SDS011;29098;48.184;16.298;2023-04-29T06:09:21;22.25;;;16.23;;
43504;SDS011;29098;48.184;16.298;2023-04-29T06:11:50;23.73;;;16.45;;
43504;SDS011;29098;48.184;16.298;2023-04-29T06:14:16;23.38;;;16.30;;
43504;SDS011;29098;48.184;16.298;2023-04-29T06:16:42;22.65;;;16.25;;
43504;SDS011;29098;48.184;16.298;2023-04-29T06:19:07;23.80;;;17.70;;
43504;SDS011;29098;48.184;16.298;2023-04-29T06:21:33;20.70;;;15.00;;
43504;SDS011;29098;48.184;16.298;2023-04-29T06:23:58;20.23;;;15.02;;
43504;SDS011;29098;48.184;16.298;2023-04-29T06:26:24;20.67;;;14.32;;
43504;SDS011;29098;48.184;16.298;2023-04-29T06:28:49;19.83;;;15.25;;
43504;SDS011;29098;48.184;16.298;2023-04-29T06:31:15;19.13;;;13.80;;
43504;SDS011;29098;48.184;16.298;2023-04-29T06:33:40;17.15;;;13.25;;
43504;SDS011;29098;48.184;16.298;2023-04-29T06:36:06;18.73;;;13.40;;
43504;SDS011;29098;48.184;16.298;2023-04-29T06:38:32;19.77;;;14.02;;
43504;SDS011;29098;48.184;16.298;2023-04-29T06:40:58;21.70;;;15.77;;
43504;SDS011;29098;48.184;16.298;2023-04-29T06:43:28;17.00;;;12.93;;
43504;SDS011;29098;48.184;16.298;2023-04-29T06:45:54;18.33;;;14.40;;
43504;SDS011;29098;48.184;16.298;2023-04-29T06:48:19;18.65;;;14.40;;
43504;SDS011;29098;48.184;16.298;2023-04-29T06:51:03;20.38;;;15.10;;
43504;SDS011;29098;48.184;16.298;2023-04-29T06:53:28;19.98;;;14.35;;
43504;SDS011;29098;48.184;16.298;2023-04-29T06:55:54;16.92;;;14.20;;
43504;SDS011;29098;48.184;16.298;2023-04-29T06:58:20;17.77;;;14.52;;
43504;SDS011;29098;48.184;16.298;2023-04-29T07:00:46;20.08;;;15.07;;
43504;SDS011;29098;48.184;16.298;2023-04-29T07:03:13;18.17;;;14.35;;
43504;SDS011;29098;48.184;16.298;2023-04-29T07:05:39;17.88;;;14.15;;
43504;SDS011;29098;48.184;16.298;2023-04-29T07:08:06;15.45;;;12.18;;
43504;SDS011;29098;48.184;16.298;2023-04-29T07:10:32;16.13;;;13.32;;
43504;SDS011;29098;48.184;16.298;2023-04-29T07:12:58;17.77;;;12.82;;
43504;SDS011;29098;48.184;16.298;2023-04-29T07:15:26;17.73;;;12.82;;
43504;SDS011;29098;48.184;16.298;2023-04-29T07:17:52;16.73;;;12.85;;
43504;SDS011;29098;48.184;16.298;2023-04-29T07:20:18;16.20;;;11.93;;
43504;SDS011;29098;48.184;16.298;2023-04-29T07:22:44;15.48;;;11.25;;
43504;SDS011;29098;48.184;16.298;2023-04-29T07:25:09;13.18;;;10.27;;
43504;SDS011;29098;48.184;16.298;2023-04-29T07:27:35;14.57;;;11.05;;
43504;SDS011;29098;48.184;16.298;2023-04-29T07:30:01;14.38;;;10.75;;
43504;SDS011;29098;48.184;16.298;2023-04-29T07:32:28;12.20;;;9.52;;
43504;SDS011;29098;48.184;16.298;2023-04-29T07:34:55;11.82;;;8.07;;
43504;SDS011;29098;48.184;16.298;2023-04-29T07:37:21;11.43;;;8.88;;
43504;SDS011;29098;48.184;16.298;2023-04-29T07:39:47;10.93;;;7.30;;
43504;SDS011;29098;48.184;16.298;2023-04-29T07:42:12;10.48;;;8.23;;
43504;SDS011;29098;48.184;16.298;2023-04-29T07:44:37;13.18;;;9.40;;
43504;SDS011;29098;48.184;16.298;2023-04-29T07:47:03;12.38;;;8.35;;
43504;SDS011;29098;48.184;16.298;2023-04-29T07:49:29;12.88;;;9.30;;
43504;SDS011;29098;48.184;16.298;2023-04-29T07:51:54;12.70;;;8.27;;
43504;SDS011;29098;48.184;16.298;2023-04-29T07:54:20;9.55;;;7.35;;
43504;SDS011;29098;48.184;16.298;2023-04-29T07:56:46;10.25;;;7.55;;
43504;SDS011;29098;48.184;16.298;2023-04-29T07:59:12;8.00;;;5.90;;
43504;SDS011;29098;48.184;16.298;2023-04-29T08:01:39;7.72;;;6.00;;
43504;SDS011;29098;48.184;16.298;2023-04-29T08:04:05;8.10;;;5.32;;
43504;SDS011;29098;48.184;16.298;2023-04-29T08:06:31;7.15;;;4.43;;
43504;SDS011;29098;48.184;16.298;2023-04-29T08:08:57;7.22;;;4.97;;
43504;SDS011;29098;48.184;16.298;2023-04-29T08:11:22;9.30;;;4.70;;
43504;SDS011;29098;48.184;16.298;2023-04-29T08:13:49;6.13;;;4.10;;
43504;SDS011;29098;48.184;16.298;2023-04-29T08:16:15;8.52;;;5.40;;
43504;SDS011;29098;48.184;16.298;2023-04-29T08:18:40;8.13;;;5.45;;
43504;SDS011;29098;48.184;16.298;2023-04-29T08:21:08;7.32;;;5.82;;
43504;SDS011;29098;48.184;16.298;2023-04-29T08:23:36;6.65;;;5.38;;
43504;SDS011;29098;48.184;16.298;2023-04-29T08:26:02;7.65;;;5.60;;
43504;SDS011;29098;48.184;16.298;2023-04-29T08:28:27;7.25;;;4.90;;
43504;SDS011;29098;48.184;16.298;2023-04-29T08:30:53;6.43;;;4.22;;
43504;SDS011;29098;48.184;16.298;2023-04-29T08:33:19;8.00;;;5.07;;
43504;SDS011;29098;48.184;16.298;2023-04-29T08:35:45;6.80;;;4.90;;
43504;SDS011;29098;48.184;16.298;2023-04-29T08:38:10;7.88;;;4.55;;
43504;SDS011;29098;48.184;16.298;2023-04-29T08:40:40;7.68;;;5.32;;
43504;SDS011;29098;48.184;16.298;2023-04-29T08:43:09;7.07;;;4.85;;
43504;SDS011;29098;48.184;16.298;2023-04-29T08:45:36;6.18;;;4.03;;
43504;SDS011;29098;48.184;16.298;2023-04-29T08:48:04;5.63;;;3.63;;
43504;SDS011;29098;48.184;16.298;2023-04-29T08:50:31;6.38;;;3.95;;
43504;SDS011;29098;48.184;16.298;2023-04-29T08:53:01;5.32;;;3.75;;
43504;SDS011;29098;48.184;16.298;2023-04-29T08:55:26;5.00;;;3.53;;
43504;SDS011;29098;48.184;16.298;2023-04-29T08:57:53;6.75;;;4.35;;
43504;SDS011;29098;48.184;16.298;2023-04-29T09:00:20;7.07;;;4.28;;
43504;SDS011;29098;48.184;16.298;2023-04-29T09:02:48;7.22;;;4.97;;
43504;SDS011;29098;48.184;16.298;2023-04-29T09:05:15;7.82;;;4.85;;
43504;SDS011;29098;48.184;16.298;2023-04-29T09:07:41;9.60;;;4.70;;
43504;SDS011;29098;48.184;16.298;2023-04-29T09:10:08;7.38;;;5.10;;
43504;SDS011;29098;48.184;16.298;2023-04-29T09:12:34;6.18;;;4.47;;
43504;SDS011;29098;48.184;16.298;2023-04-29T09:15:00;8.00;;;4.60;;
43504;SDS011;29098;48.184;16.298;2023-04-29T09:22:47;3.65;;;2.05;;
43504;SDS011;29098;48.184;16.298;2023-04-29T09:25:13;3.60;;;1.20;;
43504;SDS011;29098;48.184;16.298;2023-04-29T09:27:39;3.28;;;1.52;;
43504;SDS011;29098;48.184;16.298;2023-04-29T09:30:08;2.78;;;0.90;;
43504;SDS011;29098;48.184;16.298;2023-04-29T09:32:34;2.38;;;0.88;;
43504;SDS011;29098;48.184;16.298;2023-04-29T09:37:49;1.40;;;0.70;;
43504;SDS011;29098;48.184;16.298;2023-04-29T09:40:31;1.95;;;1.00;;
43504;SDS011;29098;48.184;16.298;2023-04-29T09:42:58;1.98;;;0.70;;
43504;SDS011;29098;48.184;16.298;2023-04-29T09:45:34;1.65;;;0.80;;
43504;SDS011;29098;48.184;16.298;2023-04-29T09:48:06;1.70;;;0.85;;
43504;SDS011;29098;48.184;16.298;2023-04-29T09:50:34;2.47;;;0.88;;
43504;SDS011;29098;48.184;16.298;2023-04-29T09:53:02;1.77;;;1.10;;
43504;SDS011;29098;48.184;16.298;2023-04-29T09:55:29;1.85;;;1.08;;
43504;SDS011;29098;48.184;16.298;2023-04-29T09:57:56;2.40;;;0.77;;
43504;SDS011;29098;48.184;16.298;2023-04-29T10:00:22;1.65;;;0.70;;
43504;SDS011;29098;48.184;16.298;2023-04-29T10:02:50;1.65;;;0.90;;
43504;SDS011;29098;48.184;16.298;2023-04-29T10:05:18;2.35;;;1.15;;
43504;SDS011;29098;48.184;16.298;2023-04-29T10:07:45;2.85;;;1.27;;
43504;SDS011;29098;48.184;16.298;2023-04-29T10:10:13;2.05;;;0.95;;
43504;SDS011;29098;48.184;16.298;2023-04-29T10:12:39;4.30;;;1.05;;
43504;SDS011;29098;48.184;16.298;2023-04-29T10:17:45;1.83;;;0.90;;
43504;SDS011;29098;48.184;16.298;2023-04-29T10:22:47;2.67;;;0.80;;
43504;SDS011;29098;48.184;16.298;2023-04-29T10:25:14;2.22;;;0.90;;
43504;SDS011;29098;48.184;16.298;2023-04-29T10:27:41;2.03;;;0.77;;
43504;SDS011;29098;48.184;16.298;2023-04-29T10:30:10;1.88;;;0.82;;
43504;SDS011;29098;48.184;16.298;2023-04-29T10:32:39;2.67;;;0.88;;
43504;SDS011;29098;48.184;16.298;2023-04-29T10:35:08;1.45;;;0.90;;
43504;SDS011;29098;48.184;16.298;2023-04-29T10:37:36;3.88;;;0.98;;
43504;SDS011;29098;48.184;16.298;2023-04-29T10:42:45;2.13;;;0.80;;
43504;SDS011;29098;48.184;16.298;2023-04-29T10:45:16;1.30;;;0.68;;
43504;SDS011;29098;48.184;16.298;2023-04-29T10:53:10;1.10;;;0.70;;
43504;SDS011;29098;48.184;16.298;2023-04-29T10:55:37;1.95;;;0.80;;
43504;SDS011;29098;48.184;16.298;2023-04-29T10:58:03;2.05;;;0.98;;
43504;SDS011;29098;48.184;16.298;2023-04-29T11:00:32;3.88;;;1.10;;
43504;SDS011;29098;48.184;16.298;2023-04-29T11:03:04;2.95;;;0.90;;
43504;SDS011;29098;48.184;16.298;2023-04-29T11:05:31;2.22;;;1.10;;
43504;SDS011;29098;48.184;16.298;2023-04-29T11:08:11;1.98;;;1.00;;
43504;SDS011;29098;48.184;16.298;2023-04-29T11:10:41;1.65;;;1.00;;
43504;SDS011;29098;48.184;16.298;2023-04-29T11:15:52;3.92;;;1.40;;
43504;SDS011;29098;48.184;16.298;2023-04-29T11:18:18;2.58;;;1.30;;
43504;SDS011;29098;48.184;16.298;2023-04-29T11:23:28;1.92;;;1.00;;
43504;SDS011;29098;48.184;16.298;2023-04-29T11:25:53;1.92;;;1.15;;
43504;SDS011;29098;48.184;16.298;2023-04-29T11:28:20;4.05;;;1.50;;
43504;SDS011;29098;48.184;16.298;2023-04-29T11:30:47;3.33;;;1.42;;
43504;SDS011;29098;48.184;16.298;2023-04-29T11:33:14;2.30;;;1.25;;
43504;SDS011;29098;48.184;16.298;2023-04-29T11:35:39;2.17;;;1.10;;
43504;SDS011;29098;48.184;16.298;2023-04-29T11:38:06;2.13;;;1.33;;
43504;SDS011;29098;48.184;16.298;2023-04-29T11:40:33;3.40;;;1.95;;
43504;SDS011;29098;48.184;16.298;2023-04-29T11:42:59;3.55;;;1.50;;
43504;SDS011;29098;48.184;16.298;2023-04-29T11:45:25;5.45;;;2.35;;
43504;SDS011;29098;48.184;16.298;2023-04-29T11:47:50;5.50;;;3.47;;
43504;SDS011;29098;48.184;16.298;2023-04-29T11:50:16;7.32;;;3.80;;
43504;SDS011;29098;48.184;16.298;2023-04-29T11:52:44;7.53;;;4.85;;
43504;SDS011;29098;48.184;16.298;2023-04-29T11:55:11;7.60;;;5.03;;
43504;SDS011;29098;48.184;16.298;2023-04-29T11:57:37;6.85;;;4.93;;
43504;SDS011;29098;48.184;16.298;2023-04-29T12:00:04;9.88;;;5.45;;
43504;SDS011;29098;48.184;16.298;2023-04-29T12:02:32;6.75;;;5.05;;
43504;SDS011;29098;48.184;16.298;2023-04-29T12:04:59;6.70;;;5.03;;
43504;SDS011;29098;48.184;16.298;2023-04-29T12:07:29;7.80;;;4.93;;
43504;SDS011;29098;48.184;16.298;2023-04-29T12:09:55;9.23;;;5.55;;
43504;SDS011;29098;48.184;16.298;2023-04-29T12:12:24;7.40;;;5.78;;
43504;SDS011;29098;48.184;16.298;2023-04-29T12:14:51;7.05;;;5.13;;
43504;SDS011;29098;48.184;16.298;2023-04-29T12:17:17;6.90;;;4.68;;
43504;SDS011;29098;48.184;16.298;2023-04-29T12:19:44;6.65;;;4.63;;
43504;SDS011;29098;48.184;16.298;2023-04-29T12:22:10;8.95;;;5.10;;
43504;SDS011;29098;48.184;16.298;2023-04-29T12:24:36;10.10;;;6.72;;
43504;SDS011;29098;48.184;16.298;2023-04-29T12:27:03;9.13;;;6.78;;
43504;SDS011;29098;48.184;16.298;2023-04-29T12:29:32;9.32;;;6.78;;
43504;SDS011;29098;48.184;16.298;2023-04-29T12:31:59;14.82;;;8.20;;
43504;SDS011;29098;48.184;16.298;2023-04-29T12:34:26;10.52;;;7.28;;
43504;SDS011;29098;48.184;16.298;2023-04-29T12:36:57;10.50;;;7.88;;
43504;SDS011;29098;48.184;16.298;2023-04-29T12:39:24;12.57;;;9.10;;
43504;SDS011;29098;48.184;16.298;2023-04-29T12:41:53;13.90;;;9.15;;
43504;SDS011;29098;48.184;16.298;2023-04-29T12:44:20;12.13;;;9.48;;
43504;SDS011;29098;48.184;16.298;2023-04-29T12:46:45;13.57;;;9.63;;
43504;SDS011;29098;48.184;16.298;2023-04-29T12:49:11;13.50;;;9.93;;
43504;SDS011;29098;48.184;16.298;2023-04-29T12:51:36;16.02;;;10.43;;
43504;SDS011;29098;48.184;16.298;2023-04-29T12:54:02;15.88;;;9.55;;
43504;SDS011;29098;48.184;16.298;2023-04-29T12:56:30;12.50;;;9.02;;
43504;SDS011;29098;48.184;16.298;2023-04-29T12:58:56;13.73;;;9.60;;
43504;SDS011;29098;48.184;16.298;2023-04-29T13:01:22;11.32;;;7.35;;
43504;SDS011;29098;48.184;16.298;2023-04-29T13:03:47;10.52;;;6.97;;
43504;SDS011;29098;48.184;16.298;2023-04-29T13:06:13;11.48;;;7.65;;
43504;SDS011;29098;48.184;16.298;2023-04-29T13:08:41;12.38;;;8.10;;
43504;SDS011;29098;48.184;16.298;2023-04-29T13:11:06;9.73;;;7.10;;
43504;SDS011;29098;48.184;16.298;2023-04-29T13:13:32;10.52;;;7.70;;
43504;SDS011;29098;48.184;16.298;2023-04-29T13:15:57;13.75;;;10.88;;
43504;SDS011;29098;48.184;16.298;2023-04-29T13:18:24;12.45;;;8.98;;
43504;SDS011;29098;48.184;16.298;2023-04-29T13:20:50;10.13;;;7.35;;
43504;SDS011;29098;48.184;16.298;2023-04-29T13:23:15;5.72;;;4.00;;
43504;SDS011;29098;48.184;16.298;2023-04-29T13:25:41;4.95;;;2.97;;
43504;SDS011;29098;48.184;16.298;2023-04-29T13:28:06;4.00;;;2.00;;
43504;SDS011;29098;48.184;16.298;2023-04-29T13:30:32;2.85;;;1.70;;
43504;SDS011;29098;48.184;16.298;2023-04-29T13:32:57;3.22;;;1.77;;
43504;SDS011;29098;48.184;16.298;2023-04-29T13:35:23;4.00;;;1.60;;
43504;SDS011;29098;48.184;16.298;2023-04-29T13:37:48;2.90;;;1.30;;
43504;SDS011;29098;48.184;16.298;2023-04-29T13:40:14;4.75;;;2.28;;
43504;SDS011;29098;48.184;16.298;2023-04-29T13:42:40;4.05;;;2.35;;
43504;SDS011;29098;48.184;16.298;2023-04-29T13:45:06;3.70;;;2.10;;
43504;SDS011;29098;48.184;16.298;2023-04-29T13:47:31;3.85;;;2.20;;
43504;SDS011;29098;48.184;16.298;2023-04-29T13:49:57;5.40;;;2.55;;
43504;SDS011;29098;48.184;16.298;2023-04-29T13:52:22;3.80;;;2.58;;
43504;SDS011;29098;48.184;16.298;2023-04-29T13:54:48;4.32;;;2.80;;
43504;SDS011;29098;48.184;16.298;2023-04-29T13:57:13;5.25;;;3.10;;
43504;SDS011;29098;48.184;16.298;2023-04-29T13:59:39;5.85;;;2.70;;
43504;SDS011;29098;48.184;16.298;2023-04-29T14:02:04;5.90;;;3.33;;
43504;SDS011;29098;48.184;16.298;2023-04-29T14:04:30;5.13;;;2.70;;
43504;SDS011;29098;48.184;16.298;2023-04-29T14:06:56;3.70;;;2.25;;
43504;SDS011;29098;48.184;16.298;2023-04-29T14:09:22;5.68;;;2.88;;
43504;SDS011;29098;48.184;16.298;2023-04-29T14:11:48;4.68;;;2.30;;
43504;SDS011;29098;48.184;16.298;2023-04-29T14:14:14;5.40;;;2.55;;
43504;SDS011;29098;48.184;16.298;2023-04-29T14:16:40;3.60;;;2.38;;
43504;SDS011;29098;48.184;16.298;2023-04-29T14:19:05;4.22;;;2.10;;
43504;SDS011;29098;48.184;16.298;2023-04-29T14:21:31;3.10;;;2.17;;
43504;SDS011;29098;48.184;16.298;2023-04-29T14:24:01;4.22;;;2.50;;
43504;SDS011;29098;48.184;16.298;2023-04-29T14:26:27;3.17;;;2.00;;
43504;SDS011;29098;48.184;16.298;2023-04-29T14:28:53;4.30;;;2.67;;
43504;SDS011;29098;48.184;16.298;2023-04-29T14:31:25;4.35;;;2.30;;
43504;SDS011;29098;48.184;16.298;2023-04-29T14:33:56;4.43;;;2.40;;
43504;SDS011;29098;48.184;16.298;2023-04-29T14:36:22;5.93;;;2.72;;
43504;SDS011;29098;48.184;16.298;2023-04-29T14:38:48;3.35;;;1.92;;
43504;SDS011;29098;48.184;16.298;2023-04-29T14:41:14;5.50;;;2.17;;
43504;SDS011;29098;48.184;16.298;2023-04-29T14:43:39;5.55;;;2.30;;
43504;SDS011;29098;48.184;16.298;2023-04-29T14:46:06;4.55;;;2.50;;
43504;SDS011;29098;48.184;16.298;2023-04-29T14:48:32;6.05;;;2.40;;
43504;SDS011;29098;48.184;16.298;2023-04-29T14:50:57;4.18;;;2.63;;
43504;SDS011;29098;48.184;16.298;2023-04-29T14:53:23;4.40;;;2.45;;
43504;SDS011;29098;48.184;16.298;2023-04-29T14:55:48;4.50;;;2.30;;
43504;SDS011;29098;48.184;16.298;2023-04-29T14:58:14;4.80;;;2.20;;